createdAt,value
2022-11-06T00:00:58.915Z,6.46
2022-11-06T00:01:58.906Z,6.48
2022-11-06T00:02:59.026Z,6.56
2022-11-06T00:03:58.903Z,6.55
2022-11-06T00:04:58.907Z,6.55
2022-11-06T00:05:58.901Z,6.36
2022-11-06T00:06:58.885Z,6.40
2022-11-06T00:07:58.876Z,6.43
2022-11-06T00:08:58.869Z,6.37
2022-11-06T00:09:58.876Z,6.48
2022-11-06T00:10:58.883Z,6.40
2022-11-06T00:11:58.878Z,6.40
2022-11-06T00:12:58.876Z,6.33
2022-11-06T00:13:58.868Z,6.38
2022-11-06T00:14:58.896Z,6.34
2022-11-06T00:15:58.878Z,6.41
2022-11-06T00:16:58.850Z,6.36
2022-11-06T00:17:58.858Z,6.31
2022-11-06T00:18:58.848Z,6.31
2022-11-06T00:19:58.845Z,6.31
2022-11-06T00:20:58.868Z,6.27
2022-11-06T00:21:58.837Z,6.27
2022-11-06T00:22:58.846Z,6.27
2022-11-06T00:23:58.857Z,6.31
2022-11-06T00:24:58.837Z,6.22
2022-11-06T00:25:58.840Z,6.31
2022-11-06T00:26:58.836Z,6.27
2022-11-06T00:27:58.833Z,6.28
2022-11-06T00:28:58.835Z,6.30
2022-11-06T00:29:58.833Z,6.19
2022-11-06T00:30:58.829Z,6.30
2022-11-06T00:31:58.842Z,6.28
2022-11-06T00:32:58.819Z,6.27
2022-11-06T00:33:58.816Z,6.27
2022-11-06T00:34:58.801Z,6.30
2022-11-06T00:35:58.805Z,6.27
2022-11-06T00:36:58.848Z,6.31
2022-11-06T00:38:06.669Z,6.41
2022-11-06T00:38:58.799Z,6.36
2022-11-06T00:39:58.801Z,6.36
2022-11-06T00:40:58.804Z,6.34
2022-11-06T00:41:58.794Z,6.28
2022-11-06T00:42:59.240Z,6.25
2022-11-06T00:43:58.799Z,6.30
2022-11-06T00:44:58.781Z,6.30
2022-11-06T00:45:58.781Z,6.28
2022-11-06T00:46:58.781Z,6.21
2022-11-06T00:47:58.782Z,6.15
2022-11-06T00:48:58.780Z,6.15
2022-11-06T00:49:58.760Z,6.14
2022-11-06T00:50:58.766Z,6.15
2022-11-06T00:51:58.753Z,6.04
2022-11-06T00:52:58.757Z,6.01
2022-11-06T00:53:58.747Z,6.09
2022-11-06T00:54:58.809Z,6.01
2022-11-06T00:55:58.754Z,6.12
2022-11-06T00:56:58.752Z,6.12
2022-11-06T00:57:58.740Z,6.11
2022-11-06T00:58:58.737Z,6.14
2022-11-06T00:59:58.744Z,6.09
2022-11-06T01:00:58.759Z,6.03
2022-11-06T01:01:58.860Z,6.06
2022-11-06T01:02:58.829Z,6.00
2022-11-06T01:03:58.735Z,6.06
2022-11-06T01:04:58.742Z,6.03
2022-11-06T01:05:58.718Z,6.14
2022-11-06T01:06:58.742Z,6.18
2022-11-06T01:07:58.725Z,6.17
2022-11-06T01:08:58.720Z,6.18
2022-11-06T01:09:58.707Z,6.15
2022-11-06T01:10:58.711Z,6.12
2022-11-06T01:12:14.686Z,6.15
2022-11-06T01:12:58.697Z,6.25
2022-11-06T01:13:58.704Z,6.25
2022-11-06T01:14:58.701Z,6.19
2022-11-06T01:15:58.687Z,6.21
2022-11-06T01:16:58.708Z,6.21
2022-11-06T01:17:58.705Z,6.15
2022-11-06T01:18:58.702Z,6.18
2022-11-06T01:19:58.687Z,6.19
2022-11-06T01:20:58.675Z,6.28
2022-11-06T01:21:58.687Z,6.17
2022-11-06T01:22:58.678Z,6.08
2022-11-06T01:23:58.690Z,6.17
2022-11-06T01:24:58.734Z,6.25
2022-11-06T01:25:58.669Z,6.25
2022-11-06T01:27:25.637Z,6.21
2022-11-06T01:27:58.652Z,6.18
2022-11-06T01:28:58.666Z,6.25
2022-11-06T01:29:58.668Z,6.22
2022-11-06T01:30:58.709Z,6.34
2022-11-06T01:31:58.654Z,6.28
2022-11-06T01:32:58.654Z,6.41
2022-11-06T01:33:58.644Z,6.41
2022-11-06T01:34:58.667Z,6.38
2022-11-06T01:35:58.644Z,6.30
2022-11-06T01:36:58.642Z,6.40
2022-11-06T01:37:58.642Z,6.37
2022-11-06T01:38:58.685Z,6.40
2022-11-06T01:39:58.622Z,6.31
2022-11-06T01:40:58.637Z,6.28
2022-11-06T01:41:58.632Z,6.25
2022-11-06T01:42:58.639Z,6.12
2022-11-06T01:43:58.625Z,6.17
2022-11-06T01:44:58.668Z,6.15
2022-11-06T01:45:58.617Z,6.17
2022-11-06T01:46:58.610Z,6.19
2022-11-06T01:47:58.618Z,6.14
2022-11-06T01:48:58.633Z,6.15
2022-11-06T01:49:58.609Z,6.15
2022-11-06T01:50:58.611Z,6.14
2022-11-06T01:51:58.590Z,6.18
2022-11-06T01:52:58.598Z,6.22
2022-11-06T01:53:58.601Z,6.17
2022-11-06T01:54:58.603Z,6.22
2022-11-06T01:55:58.592Z,6.19
2022-11-06T01:56:58.581Z,6.17
2022-11-06T01:57:58.611Z,6.30
2022-11-06T01:58:58.578Z,6.21
2022-11-06T01:59:58.635Z,6.21
2022-11-06T02:00:58.561Z,6.22
2022-11-06T02:01:58.655Z,6.17
2022-11-06T02:02:58.647Z,6.14
2022-11-06T02:03:58.583Z,6.11
2022-11-06T02:04:58.562Z,6.09
2022-11-06T02:05:58.561Z,6.11
2022-11-06T02:06:58.552Z,6.17
2022-11-06T02:07:58.564Z,6.11
2022-11-06T02:08:58.571Z,6.11
2022-11-06T02:09:58.564Z,6.14
2022-11-06T02:10:58.553Z,6.12
2022-11-06T02:11:58.541Z,6.06
2022-11-06T02:12:58.545Z,6.11
2022-11-06T02:13:58.529Z,6.11
2022-11-06T02:14:58.584Z,6.12
2022-11-06T02:15:58.526Z,6.12
2022-11-06T02:16:58.520Z,6.12
2022-11-06T02:17:58.532Z,6.14
2022-11-06T02:18:58.544Z,6.17
2022-11-06T02:19:58.543Z,6.09
2022-11-06T02:20:58.517Z,6.14
2022-11-06T02:21:58.531Z,6.09
2022-11-06T02:22:58.508Z,6.14
2022-11-06T02:23:58.539Z,6.14
2022-11-06T02:24:58.493Z,6.09
2022-11-06T02:25:58.520Z,6.08
2022-11-06T02:26:58.602Z,6.06
2022-11-06T02:27:58.494Z,6.09
2022-11-06T02:28:58.497Z,5.99
2022-11-06T02:29:58.481Z,6.00
2022-11-06T02:30:58.493Z,6.11
2022-11-06T02:31:58.489Z,6.09
2022-11-06T02:32:58.504Z,6.03
2022-11-06T02:33:58.469Z,5.91
2022-11-06T02:34:58.479Z,5.96
2022-11-06T02:35:58.495Z,5.99
2022-11-06T02:36:58.463Z,5.99
2022-11-06T02:37:58.480Z,5.99
2022-11-06T02:38:58.478Z,6.04
2022-11-06T02:39:58.465Z,6.03
2022-11-06T02:40:58.452Z,5.96
2022-11-06T02:41:58.472Z,6.00
2022-11-06T02:42:58.441Z,6.01
2022-11-06T02:43:58.467Z,6.04
2022-11-06T02:44:58.444Z,6.01
2022-11-06T02:45:58.453Z,5.99
2022-11-06T02:46:58.442Z,6.12
2022-11-06T02:47:58.461Z,6.09
2022-11-06T02:48:58.437Z,6.09
2022-11-06T02:49:58.450Z,6.11
2022-11-06T02:50:58.420Z,6.14
2022-11-06T02:51:58.434Z,6.09
2022-11-06T02:52:58.413Z,6.14
2022-11-06T02:53:58.416Z,6.15
2022-11-06T02:54:58.450Z,6.15
2022-11-06T02:55:58.417Z,6.14
2022-11-06T02:56:58.409Z,6.06
2022-11-06T02:57:58.410Z,6.17
2022-11-06T02:58:58.406Z,6.17
2022-11-06T02:59:58.409Z,6.27
2022-11-06T03:00:58.407Z,6.21
2022-11-06T03:01:58.544Z,6.27
2022-11-06T03:02:58.592Z,6.25
2022-11-06T03:03:58.382Z,6.33
2022-11-06T03:04:58.410Z,6.33
2022-11-06T03:05:58.388Z,6.36
2022-11-06T03:06:58.385Z,6.21
2022-11-06T03:07:58.396Z,6.30
2022-11-06T03:08:58.365Z,6.37
2022-11-06T03:09:58.375Z,6.37
2022-11-06T03:10:58.359Z,6.37
2022-11-06T03:11:58.395Z,6.43
2022-11-06T03:12:58.366Z,6.36
2022-11-06T03:13:58.366Z,6.40
2022-11-06T03:14:58.427Z,6.40
2022-11-06T03:15:58.343Z,6.37
2022-11-06T03:16:58.372Z,6.37
2022-11-06T03:17:58.359Z,6.36
2022-11-06T03:18:58.345Z,6.43
2022-11-06T03:19:58.343Z,6.43
2022-11-06T03:20:58.333Z,6.49
2022-11-06T03:21:58.355Z,6.46
2022-11-06T03:22:58.334Z,6.48
2022-11-06T03:23:58.333Z,6.37
2022-11-06T03:24:58.341Z,6.38
2022-11-06T03:25:58.325Z,6.38
2022-11-06T03:26:58.351Z,6.37
2022-11-06T03:27:58.320Z,6.34
2022-11-06T03:28:58.308Z,6.27
2022-11-06T03:29:58.320Z,6.22
2022-11-06T03:30:58.312Z,6.21
2022-11-06T03:31:58.309Z,6.25
2022-11-06T03:32:58.314Z,6.11
2022-11-06T03:33:58.307Z,6.06
2022-11-06T03:34:58.306Z,6.17
2022-11-06T03:35:58.296Z,6.04
2022-11-06T03:36:58.293Z,6.03
2022-11-06T03:37:58.302Z,6.01
2022-11-06T03:38:58.300Z,6.06
2022-11-06T03:39:58.281Z,6.01
2022-11-06T03:40:58.285Z,5.99
2022-11-06T03:41:58.276Z,6.03
2022-11-06T03:42:58.282Z,6.08
2022-11-06T03:43:58.305Z,6.01
2022-11-06T03:44:58.262Z,6.01
2022-11-06T03:45:58.270Z,6.01
2022-11-06T03:46:58.350Z,6.01
2022-11-06T03:47:58.272Z,6.01
2022-11-06T03:48:58.268Z,6.01
2022-11-06T03:49:58.264Z,6.04
2022-11-06T03:50:58.246Z,5.99
2022-11-06T03:51:58.255Z,6.04
2022-11-06T03:52:58.242Z,5.97
2022-11-06T03:53:58.245Z,6.06
2022-11-06T03:54:58.264Z,5.90
2022-11-06T03:55:58.238Z,5.90
2022-11-06T03:56:58.244Z,5.97
2022-11-06T03:57:58.236Z,5.90
2022-11-06T03:58:58.252Z,5.96
2022-11-06T03:59:58.227Z,5.78
2022-11-06T04:00:58.221Z,5.81
2022-11-06T04:01:58.346Z,5.90
2022-11-06T04:02:58.409Z,5.93
2022-11-06T04:03:58.223Z,5.81
2022-11-06T04:04:58.229Z,5.78
2022-11-06T04:05:58.211Z,5.83
2022-11-06T04:06:58.217Z,5.90
2022-11-06T04:07:58.206Z,5.81
2022-11-06T04:08:58.193Z,5.94
2022-11-06T04:09:58.216Z,5.86
2022-11-06T04:10:58.201Z,5.86
2022-11-06T04:11:58.198Z,5.86
2022-11-06T04:12:58.188Z,5.83
2022-11-06T04:13:58.199Z,5.99
2022-11-06T04:14:58.233Z,5.81
2022-11-06T04:15:58.195Z,5.86
2022-11-06T04:16:58.179Z,5.83
2022-11-06T04:17:58.181Z,5.85
2022-11-06T04:18:58.158Z,5.81
2022-11-06T04:19:58.159Z,5.81
2022-11-06T04:20:58.182Z,5.82
2022-11-06T04:21:58.178Z,5.82
2022-11-06T04:22:58.144Z,5.81
2022-11-06T04:23:58.160Z,5.78
2022-11-06T04:24:58.159Z,5.76
2022-11-06T04:25:58.153Z,5.79
2022-11-06T04:26:58.141Z,5.74
2022-11-06T04:27:58.141Z,5.74
2022-11-06T04:28:58.151Z,5.79
2022-11-06T04:29:58.133Z,5.75
2022-11-06T04:30:58.141Z,5.72
2022-11-06T04:31:58.144Z,5.74
2022-11-06T04:33:00.343Z,5.76
2022-11-06T04:33:58.135Z,5.81
2022-11-06T04:34:58.133Z,5.76
2022-11-06T04:35:58.121Z,5.67
2022-11-06T04:36:58.126Z,5.76
2022-11-06T04:37:58.107Z,5.75
2022-11-06T04:38:58.117Z,5.74
2022-11-06T04:39:58.093Z,5.75
2022-11-06T04:40:58.130Z,5.72
2022-11-06T04:41:58.105Z,5.75
2022-11-06T04:42:58.152Z,5.82
2022-11-06T04:43:58.094Z,5.79
2022-11-06T04:44:58.111Z,5.78
2022-11-06T04:45:58.112Z,5.78
2022-11-06T04:46:58.118Z,5.71
2022-11-06T04:47:58.092Z,5.78
2022-11-06T04:48:58.079Z,5.74
2022-11-06T04:49:58.065Z,5.72
2022-11-06T04:50:58.072Z,5.75
2022-11-06T04:51:58.075Z,5.72
2022-11-06T04:52:58.158Z,5.68
2022-11-06T04:53:58.063Z,5.71
2022-11-06T04:54:58.070Z,5.72
2022-11-06T04:55:58.080Z,5.76
2022-11-06T04:56:58.072Z,5.67
2022-11-06T04:57:58.056Z,5.76
2022-11-06T04:58:58.054Z,5.74
2022-11-06T04:59:58.045Z,5.75
2022-11-06T05:00:58.120Z,5.68
2022-11-06T05:01:58.079Z,5.67
2022-11-06T05:02:58.053Z,5.75
2022-11-06T05:03:58.040Z,5.71
2022-11-06T05:04:58.021Z,5.67
2022-11-06T05:05:58.031Z,5.63
2022-11-06T05:06:58.023Z,5.64
2022-11-06T05:07:58.021Z,5.60
2022-11-06T05:08:58.042Z,5.64
2022-11-06T05:09:58.008Z,5.61
2022-11-06T05:10:58.013Z,5.58
2022-11-06T05:11:58.019Z,5.63
2022-11-06T05:12:58.025Z,5.64
2022-11-06T05:13:57.998Z,5.54
2022-11-06T05:14:58.015Z,5.67
2022-11-06T05:15:58.008Z,5.58
2022-11-06T05:16:58.005Z,5.65
2022-11-06T05:17:57.991Z,5.67
2022-11-06T05:18:57.977Z,5.63
2022-11-06T05:19:57.989Z,5.71
2022-11-06T05:20:57.986Z,5.68
2022-11-06T05:21:57.984Z,5.78
2022-11-06T05:22:58.079Z,5.81
2022-11-06T05:23:57.971Z,5.68
2022-11-06T05:26:37.820Z,5.67
2022-11-06T05:27:45.472Z,5.76
2022-11-06T05:28:37.802Z,5.65
2022-11-06T05:29:37.800Z,5.63
2022-11-06T05:30:37.781Z,5.65
2022-11-06T05:31:45.870Z,5.58
2022-11-06T05:32:37.790Z,5.58
2022-11-06T05:33:37.806Z,5.64
2022-11-06T05:34:47.031Z,5.65
2022-11-06T05:35:37.784Z,5.60
2022-11-06T05:36:37.798Z,5.60
2022-11-06T05:37:45.308Z,5.53
2022-11-06T05:38:37.754Z,5.54
2022-11-06T05:39:41.556Z,5.51
2022-11-06T05:40:45.612Z,5.51
2022-11-06T05:41:46.650Z,5.51
2022-11-06T05:42:46.329Z,5.48
2022-11-06T05:43:45.721Z,5.48
2022-11-06T05:44:44.848Z,5.53
2022-11-06T05:45:37.738Z,5.53
2022-11-06T05:46:53.069Z,5.48
2022-11-06T05:47:44.820Z,5.51
2022-11-06T05:48:45.826Z,5.56
2022-11-06T05:49:45.331Z,5.54
2022-11-06T05:50:37.715Z,5.53
2022-11-06T05:51:37.714Z,5.57
2022-11-06T05:52:44.783Z,5.57
2022-11-06T05:53:45.272Z,5.53
2022-11-06T05:54:45.957Z,5.54
2022-11-06T05:57:24.086Z,5.51
2022-11-06T05:58:24.566Z,5.51
2022-11-06T05:59:26.268Z,5.53
2022-11-06T06:00:25.809Z,5.53
2022-11-06T06:01:25.392Z,5.54
2022-11-06T06:02:25.540Z,5.54
2022-11-06T06:03:24.574Z,5.51
2022-11-06T06:04:25.450Z,5.54
2022-11-06T06:06:56.300Z,5.54
2022-11-06T06:08:04.553Z,5.54
2022-11-06T06:09:03.851Z,5.49
2022-11-06T06:10:04.058Z,5.45
2022-11-06T06:11:05.605Z,5.45
2022-11-06T06:12:04.641Z,5.31
2022-11-06T06:13:07.675Z,5.39
2022-11-06T06:14:05.737Z,5.35
2022-11-06T06:14:56.303Z,5.35
2022-11-06T06:16:04.763Z,5.33
2022-11-06T06:17:04.763Z,5.39
2022-11-06T06:18:05.315Z,5.30
2022-11-06T06:20:44.140Z,5.45
2022-11-06T06:21:44.808Z,5.42
2022-11-06T06:22:36.588Z,5.42
2022-11-06T06:25:27.366Z,5.46
2022-11-06T06:26:27.185Z,5.46
2022-11-06T06:27:27.168Z,5.42
2022-11-06T06:28:35.617Z,5.38
2022-11-06T06:29:35.163Z,5.43
2022-11-06T06:30:35.716Z,5.33
2022-11-06T06:31:34.716Z,5.48
2022-11-06T06:32:27.158Z,5.45
2022-11-06T06:33:35.264Z,5.45
2022-11-06T06:34:36.319Z,5.43
2022-11-06T06:35:34.664Z,5.40
2022-11-06T06:36:34.666Z,5.38
2022-11-06T06:37:34.190Z,5.39
2022-11-06T06:38:27.120Z,5.53
2022-11-06T06:39:34.926Z,5.49
2022-11-06T06:40:36.468Z,5.57
2022-11-06T06:41:35.496Z,5.51
2022-11-06T06:42:34.674Z,5.53
2022-11-06T06:43:27.110Z,5.57
2022-11-06T06:44:27.094Z,5.64
2022-11-06T06:45:35.576Z,5.71
2022-11-06T06:46:27.108Z,5.65
2022-11-06T06:47:34.651Z,5.74
2022-11-06T06:48:27.096Z,5.71
2022-11-06T06:49:27.063Z,5.76
2022-11-06T06:50:35.603Z,5.82
2022-11-06T06:51:35.175Z,5.81
2022-11-06T06:52:27.057Z,5.89
2022-11-06T06:53:27.100Z,6.01
2022-11-06T06:54:35.194Z,6.00
2022-11-06T06:55:27.044Z,6.06
2022-11-06T06:56:27.047Z,6.14
2022-11-06T06:57:27.058Z,6.18
2022-11-06T06:58:34.277Z,6.31
2022-11-06T06:59:35.310Z,6.36
2022-11-06T07:00:40.899Z,6.43
2022-11-06T07:01:27.212Z,6.51
2022-11-06T07:02:27.118Z,6.51
2022-11-06T07:03:27.019Z,6.56
2022-11-06T07:04:27.021Z,6.70
2022-11-06T07:05:27.011Z,6.67
2022-11-06T07:06:27.006Z,6.77
2022-11-06T07:07:27.010Z,6.84
2022-11-06T07:08:27.029Z,6.94
2022-11-06T07:09:26.993Z,7.03
2022-11-06T07:10:27.003Z,7.06
2022-11-06T07:11:26.989Z,7.06
2022-11-06T07:12:26.980Z,7.20
2022-11-06T07:13:29.304Z,7.15
2022-11-06T07:14:26.988Z,7.37
2022-11-06T07:15:26.994Z,7.43
2022-11-06T07:16:26.970Z,7.46
2022-11-06T07:17:26.975Z,7.55
2022-11-06T07:18:26.973Z,7.57
2022-11-06T07:19:26.981Z,7.75
2022-11-06T07:20:27.324Z,7.69
2022-11-06T07:21:26.967Z,7.93
2022-11-06T07:22:32.364Z,8.08
2022-11-06T07:23:26.959Z,8.12
2022-11-06T07:24:26.955Z,8.16
2022-11-06T07:25:26.970Z,8.33
2022-11-06T07:26:26.946Z,8.36
2022-11-06T07:27:26.950Z,8.40
2022-11-06T07:28:26.930Z,8.56
2022-11-06T07:29:26.944Z,8.62
2022-11-06T07:30:26.954Z,8.66
2022-11-06T07:31:26.974Z,8.76
2022-11-06T07:32:26.935Z,8.71
2022-11-06T07:33:26.918Z,8.92
2022-11-06T07:34:26.928Z,8.89
2022-11-06T07:35:26.940Z,8.89
2022-11-06T07:36:26.938Z,8.86
2022-11-06T07:37:26.915Z,8.95
2022-11-06T07:38:27.842Z,8.95
2022-11-06T07:39:26.911Z,9.13
2022-11-06T07:40:26.938Z,9.15
2022-11-06T07:41:26.913Z,9.32
2022-11-06T07:42:26.936Z,9.31
2022-11-06T07:43:26.909Z,9.43
2022-11-06T07:44:26.906Z,9.39
2022-11-06T07:45:26.895Z,9.53
2022-11-06T07:46:26.899Z,9.64
2022-11-06T07:47:26.914Z,9.65
2022-11-06T07:48:26.905Z,9.83
2022-11-06T07:49:26.891Z,9.93
2022-11-06T07:50:26.892Z,9.93
2022-11-06T07:51:26.887Z,10.04
2022-11-06T07:52:26.909Z,10.25
2022-11-06T07:53:26.880Z,10.07
2022-11-06T07:54:26.886Z,10.07
2022-11-06T07:55:26.871Z,10.11
2022-11-06T07:56:26.880Z,10.26
2022-11-06T07:57:26.883Z,10.30
2022-11-06T07:58:26.880Z,10.33
2022-11-06T07:59:26.886Z,10.38
2022-11-06T08:00:26.860Z,10.38
2022-11-06T08:01:26.975Z,10.40
2022-11-06T08:02:26.895Z,10.45
2022-11-06T08:03:26.895Z,10.30
2022-11-06T08:04:26.886Z,10.40
2022-11-06T08:05:26.855Z,10.40
2022-11-06T08:06:26.858Z,10.32
2022-11-06T08:07:26.857Z,10.27
2022-11-06T08:08:26.866Z,10.44
2022-11-06T08:09:26.878Z,10.55
2022-11-06T08:10:26.900Z,10.68
2022-11-06T08:11:26.897Z,10.76
2022-11-06T08:12:26.842Z,10.89
2022-11-06T08:13:26.855Z,10.89
2022-11-06T08:14:26.851Z,10.76
2022-11-06T08:15:26.859Z,10.76
2022-11-06T08:16:26.829Z,10.64
2022-11-06T08:17:26.857Z,10.61
2022-11-06T08:18:26.856Z,10.60
2022-11-06T08:19:26.956Z,10.66
2022-11-06T08:20:26.981Z,10.55
2022-11-06T08:21:26.829Z,10.61
2022-11-06T08:22:27.743Z,10.66
2022-11-06T08:23:26.826Z,10.60
2022-11-06T08:24:26.854Z,10.55
2022-11-06T08:25:27.840Z,10.45
2022-11-06T08:26:26.924Z,10.48
2022-11-06T08:27:26.823Z,10.40
2022-11-06T08:28:26.830Z,10.47
2022-11-06T08:29:26.811Z,10.52
2022-11-06T08:30:26.858Z,10.55
2022-11-06T08:31:26.831Z,10.60
2022-11-06T08:32:27.051Z,10.41
2022-11-06T08:33:26.820Z,10.38
2022-11-06T08:34:26.808Z,10.44
2022-11-06T08:35:26.810Z,10.40
2022-11-06T08:36:26.820Z,10.32
2022-11-06T08:37:26.813Z,10.27
2022-11-06T08:38:26.801Z,10.20
2022-11-06T08:39:26.810Z,10.18
2022-11-06T08:40:30.850Z,10.23
2022-11-06T08:41:26.810Z,10.18
2022-11-06T08:42:26.816Z,10.25
2022-11-06T08:43:26.796Z,10.30
2022-11-06T08:44:26.825Z,10.26
2022-11-06T08:45:26.798Z,10.30
2022-11-06T08:46:26.785Z,10.25
2022-11-06T08:47:26.808Z,10.22
2022-11-06T08:48:26.857Z,10.26
2022-11-06T08:49:26.809Z,10.32
2022-11-06T08:50:26.869Z,10.34
2022-11-06T08:51:26.792Z,10.32
2022-11-06T08:52:31.172Z,10.42
2022-11-06T08:53:26.810Z,10.48
2022-11-06T08:54:26.776Z,10.48
2022-11-06T08:55:26.780Z,10.60
2022-11-06T08:56:26.804Z,10.60
2022-11-06T08:57:26.840Z,10.68
2022-11-06T08:58:26.782Z,10.53
2022-11-06T08:59:26.761Z,10.64
2022-11-06T09:00:26.831Z,10.61
2022-11-06T09:01:26.863Z,10.71
2022-11-06T09:02:26.877Z,10.67
2022-11-06T09:03:26.870Z,10.71
2022-11-06T09:04:26.769Z,10.52
2022-11-06T09:05:26.754Z,10.59
2022-11-06T09:06:26.771Z,10.56
2022-11-06T09:07:26.764Z,10.60
2022-11-06T09:08:26.763Z,10.56
2022-11-06T09:09:26.757Z,10.59
2022-11-06T09:10:26.763Z,10.68
2022-11-06T09:11:26.765Z,10.71
2022-11-06T09:12:26.754Z,10.66
2022-11-06T09:13:26.753Z,10.70
2022-11-06T09:14:26.769Z,10.68
2022-11-06T09:15:26.772Z,10.64
2022-11-06T09:16:26.747Z,10.66
2022-11-06T09:17:26.773Z,10.73
2022-11-06T09:18:26.748Z,10.79
2022-11-06T09:19:26.756Z,10.94
2022-11-06T09:20:26.754Z,11.04
2022-11-06T09:21:26.731Z,11.02
2022-11-06T09:22:26.722Z,11.18
2022-11-06T09:23:26.749Z,11.15
2022-11-06T09:24:49.640Z,11.24
2022-11-06T09:25:26.740Z,11.33
2022-11-06T09:26:26.721Z,11.37
2022-11-06T09:27:26.727Z,11.32
2022-11-06T09:28:26.729Z,11.21
2022-11-06T09:29:26.739Z,11.36
2022-11-06T09:30:26.721Z,11.35
2022-11-06T09:31:26.715Z,11.43
2022-11-06T09:32:26.718Z,11.39
2022-11-06T09:33:26.725Z,11.44
2022-11-06T09:34:26.722Z,11.51
2022-11-06T09:35:26.737Z,11.43
2022-11-06T09:36:26.873Z,11.49
2022-11-06T09:37:26.704Z,11.55
2022-11-06T09:38:26.717Z,11.58
2022-11-06T09:39:26.716Z,11.47
2022-11-06T09:40:26.704Z,11.61
2022-11-06T09:41:26.702Z,11.72
2022-11-06T09:42:26.695Z,11.67
2022-11-06T09:43:58.086Z,11.82
2022-11-06T09:44:26.734Z,11.88
2022-11-06T09:45:26.702Z,12.09
2022-11-06T09:46:26.706Z,12.21
2022-11-06T09:47:26.690Z,12.34
2022-11-06T09:48:26.702Z,12.38
2022-11-06T09:49:26.706Z,12.35
2022-11-06T09:50:26.711Z,12.24
2022-11-06T09:51:26.695Z,12.29
2022-11-06T09:52:26.682Z,12.16
2022-11-06T09:53:26.688Z,12.20
2022-11-06T09:54:26.714Z,12.13
2022-11-06T09:55:26.708Z,12.19
2022-11-06T09:56:26.688Z,12.05
2022-11-06T09:57:26.701Z,12.07
2022-11-06T09:58:26.687Z,12.13
2022-11-06T09:59:26.684Z,11.95
2022-11-06T10:00:26.691Z,12.07
2022-11-06T10:01:27.597Z,12.02
2022-11-06T10:02:26.816Z,12.13
2022-11-06T10:03:26.674Z,12.34
2022-11-06T10:04:26.691Z,12.52
2022-11-06T10:05:26.702Z,12.62
2022-11-06T10:06:26.721Z,12.85
2022-11-06T10:07:26.680Z,13.04
2022-11-06T10:08:26.682Z,13.22
2022-11-06T10:09:26.674Z,13.42
2022-11-06T10:10:26.705Z,13.38
2022-11-06T10:11:26.689Z,13.49
2022-11-06T10:12:26.712Z,13.75
2022-11-06T10:13:26.669Z,13.82
2022-11-06T10:14:26.668Z,13.95
2022-11-06T10:15:26.686Z,14.12
2022-11-06T10:16:26.684Z,14.06
2022-11-06T10:17:26.684Z,14.24
2022-11-06T10:18:26.681Z,14.37
2022-11-06T10:19:26.701Z,14.45
2022-11-06T10:20:27.473Z,14.18
2022-11-06T10:21:26.723Z,14.24
2022-11-06T10:22:26.683Z,14.12
2022-11-06T10:23:26.691Z,14.17
2022-11-06T10:24:26.672Z,13.99
2022-11-06T10:25:26.692Z,13.95
2022-11-06T10:26:31.232Z,13.99
2022-11-06T10:27:43.326Z,13.81
2022-11-06T10:28:26.675Z,13.84
2022-11-06T10:29:26.690Z,13.95
2022-11-06T10:30:26.685Z,13.92
2022-11-06T10:31:26.686Z,13.82
2022-11-06T10:32:26.697Z,13.82
2022-11-06T10:33:26.703Z,13.70
2022-11-06T10:34:26.686Z,13.59
2022-11-06T10:35:26.692Z,13.59
2022-11-06T10:36:27.415Z,13.49
2022-11-06T10:37:26.696Z,13.52
2022-11-06T10:38:26.691Z,13.46
2022-11-06T10:39:26.695Z,13.51
2022-11-06T10:40:26.695Z,13.39
2022-11-06T10:41:26.707Z,13.36
2022-11-06T10:42:26.683Z,13.26
2022-11-06T10:43:26.711Z,13.05
2022-11-06T10:44:26.714Z,12.96
2022-11-06T10:45:26.705Z,12.83
2022-11-06T10:46:26.693Z,12.89
2022-11-06T10:47:26.693Z,12.86
2022-11-06T10:48:30.467Z,12.89
2022-11-06T10:49:26.695Z,12.74
2022-11-06T10:50:26.815Z,12.71
2022-11-06T10:51:26.693Z,12.77
2022-11-06T10:52:26.701Z,12.75
2022-11-06T10:53:26.694Z,12.72
2022-11-06T10:54:26.689Z,12.85
2022-11-06T10:55:26.695Z,12.87
2022-11-06T10:56:26.711Z,13.04
2022-11-06T10:57:26.684Z,13.11
2022-11-06T10:58:26.701Z,13.22
2022-11-06T10:59:26.703Z,13.38
2022-11-06T11:00:26.682Z,13.32
2022-11-06T11:01:26.872Z,13.46
2022-11-06T11:02:26.775Z,13.57
2022-11-06T11:03:26.834Z,13.79
2022-11-06T11:04:26.708Z,14.07
2022-11-06T11:05:26.691Z,14.06
2022-11-06T11:06:26.703Z,13.97
2022-11-06T11:07:26.686Z,13.99
2022-11-06T11:08:26.754Z,14.03
2022-11-06T11:09:26.684Z,14.21
2022-11-06T11:10:26.714Z,14.22
2022-11-06T11:11:26.691Z,14.36
2022-11-06T11:12:26.696Z,14.47
2022-11-06T11:13:26.689Z,14.57
2022-11-06T11:14:26.696Z,14.51
2022-11-06T11:15:26.697Z,14.72
2022-11-06T11:16:26.712Z,14.65
2022-11-06T11:17:26.702Z,14.51
2022-11-06T11:18:26.689Z,14.47
2022-11-06T11:19:26.687Z,14.51
2022-11-06T11:20:26.694Z,14.40
2022-11-06T11:21:26.690Z,14.45
2022-11-06T11:22:32.819Z,14.54
2022-11-06T11:23:26.813Z,14.51
2022-11-06T11:24:26.685Z,14.36
2022-11-06T11:25:26.729Z,14.64
2022-11-06T11:26:26.693Z,14.68
2022-11-06T11:27:26.673Z,15.02
2022-11-06T11:28:26.688Z,15.17
2022-11-06T11:29:26.701Z,15.29
2022-11-06T11:30:26.679Z,15.31
2022-11-06T11:31:26.686Z,15.29
2022-11-06T11:32:26.684Z,15.27
2022-11-06T11:33:26.689Z,15.17
2022-11-06T11:34:26.691Z,15.02
2022-11-06T11:35:26.690Z,14.98
2022-11-06T11:36:26.698Z,14.99
2022-11-06T11:37:26.688Z,14.99
2022-11-06T11:38:26.686Z,14.84
2022-11-06T11:39:26.718Z,14.77
2022-11-06T11:40:26.697Z,14.69
2022-11-06T11:41:26.689Z,14.70
2022-11-06T11:42:26.673Z,14.89
2022-11-06T11:43:26.693Z,14.99
2022-11-06T11:44:26.674Z,15.11
2022-11-06T11:45:26.697Z,15.10
2022-11-06T11:46:26.693Z,15.25
2022-11-06T11:47:26.701Z,15.29
2022-11-06T11:48:26.721Z,15.29
2022-11-06T11:49:26.700Z,15.19
2022-11-06T11:50:26.754Z,15.06
2022-11-06T11:51:26.694Z,14.95
2022-11-06T11:52:26.719Z,14.99
2022-11-06T11:53:26.671Z,15.07
2022-11-06T11:54:26.728Z,14.99
2022-11-06T11:55:26.683Z,14.89
2022-11-06T11:56:49.542Z,14.75
2022-11-06T11:57:26.668Z,14.83
2022-11-06T11:58:26.673Z,15.02
2022-11-06T11:59:26.676Z,14.94
2022-11-06T12:00:26.685Z,14.64
2022-11-06T12:01:26.719Z,14.65
2022-11-06T12:02:27.945Z,14.69
2022-11-06T12:03:26.812Z,14.73
2022-11-06T12:04:26.684Z,14.89
2022-11-06T12:05:26.672Z,14.92
2022-11-06T12:06:26.720Z,14.95
2022-11-06T12:07:26.672Z,15.02
2022-11-06T12:08:26.677Z,15.09
2022-11-06T12:09:26.664Z,14.99
2022-11-06T12:10:26.667Z,14.95
2022-11-06T12:11:26.680Z,14.99
2022-11-06T12:12:26.703Z,14.92
2022-11-06T12:13:26.768Z,14.83
2022-11-06T12:14:26.676Z,14.73
2022-11-06T12:15:26.678Z,14.80
2022-11-06T12:16:26.675Z,14.62
2022-11-06T12:17:26.687Z,14.60
2022-11-06T12:18:26.695Z,14.36
2022-11-06T12:19:26.679Z,14.27
2022-11-06T12:20:27.482Z,14.15
2022-11-06T12:21:26.656Z,14.00
2022-11-06T12:22:26.682Z,13.95
2022-11-06T12:23:26.670Z,13.85
2022-11-06T12:24:26.692Z,13.84
2022-11-06T12:25:26.660Z,13.87
2022-11-06T12:26:26.673Z,13.84
2022-11-06T12:27:26.663Z,13.70
2022-11-06T12:28:28.043Z,13.71
2022-11-06T12:31:29.717Z,13.64
2022-11-06T13:04:57.912Z,13.51
2022-11-06T13:05:49.813Z,13.52
2022-11-06T13:06:49.409Z,13.46
2022-11-06T13:10:49.434Z,13.57
2022-11-06T13:11:49.668Z,13.60
2022-11-06T13:12:50.126Z,13.67
2022-11-06T13:14:52.973Z,13.77
2022-11-06T13:15:50.237Z,13.81
2022-11-06T13:16:49.400Z,13.81
2022-11-06T13:17:49.387Z,13.82
2022-11-06T13:18:53.215Z,13.73
2022-11-06T13:19:49.423Z,13.77
2022-11-06T13:20:49.465Z,13.79
2022-11-06T13:21:49.392Z,13.77
2022-11-06T13:22:49.498Z,13.82
2022-11-06T13:23:49.382Z,13.91
2022-11-06T13:24:49.380Z,13.89
2022-11-06T13:25:49.375Z,13.87
2022-11-06T13:26:49.373Z,13.92
2022-11-06T13:27:49.418Z,13.87
2022-11-06T13:28:49.385Z,13.75
2022-11-06T13:29:49.384Z,13.82
2022-11-06T13:30:49.452Z,13.84
2022-11-06T13:31:49.388Z,13.85
2022-11-06T13:32:53.661Z,13.82
2022-11-06T13:33:49.383Z,13.73
2022-11-06T13:34:49.369Z,13.71
2022-11-06T13:35:49.355Z,13.79
2022-11-06T13:36:49.372Z,13.77
2022-11-06T13:37:49.389Z,13.79
2022-11-06T13:38:49.385Z,13.77
2022-11-06T13:39:49.362Z,13.79
2022-11-06T13:40:49.366Z,13.84
2022-11-06T13:41:49.375Z,13.77
2022-11-06T13:42:49.366Z,13.85
2022-11-06T13:43:49.376Z,13.85
2022-11-06T13:44:49.374Z,13.92
2022-11-06T13:45:49.364Z,13.85
2022-11-06T13:46:49.344Z,13.87
2022-11-06T13:47:49.356Z,13.84
2022-11-06T13:48:49.355Z,13.77
2022-11-06T13:49:49.383Z,13.73
2022-11-06T13:50:49.381Z,13.73
2022-11-06T13:51:49.336Z,13.75
2022-11-06T13:52:49.343Z,13.70
2022-11-06T13:53:49.365Z,13.73
2022-11-06T13:54:49.369Z,13.70